Time;durP1;ratioP1;P1;durP2;ratioP2;P2;SDS_P1;SDS_P2;PMS_P1;PMS_P2;Temp;Humidity;BMP_temperature;BMP_pressure;BME280_temperature;BME280_humidity;BME280_pressure;Samples;Min_cycle;Max_cycle;Signal;HPM_P1;HPM_P2
2022/09/30 00:01:07;;;;;;;1.30;0.60;;;;;;;8.04;57.60;100684.72;5015491;28;20060;-68
2022/09/30 00:03:32;;;;;;;0.90;0.50;;;;;;;8.09;57.79;100682.84;5012948;28;20064;-69
2022/09/30 00:05:59;;;;;;;2.50;1.15;;;;;;;8.12;57.45;100682.72;5009128;28;20434;-69
2022/09/30 00:08:25;;;;;;;1.38;0.70;;;;;;;8.17;57.71;100677.34;5012374;28;20053;-67
2022/09/30 00:11:05;;;;;;;1.33;0.80;;;;;;;8.15;57.53;100674.78;5011102;28;20562;-68
2022/09/30 00:13:32;;;;;;;4.75;0.85;;;;;;;8.18;57.28;100683.41;5011513;28;20045;-68
2022/09/30 00:15:58;;;;;;;3.38;1.38;;;;;;;8.13;57.38;100673.16;5010547;28;20581;-68
2022/09/30 00:18:25;;;;;;;2.47;1.55;;;;;;;8.08;57.38;100683.72;5012188;28;20032;-67
2022/09/30 00:20:51;;;;;;;4.13;1.30;;;;;;;7.96;57.43;100681.53;5013841;28;20394;-73
2022/09/30 00:23:17;;;;;;;2.17;1.58;;;;;;;7.94;57.34;100673.75;5002897;28;20064;-72
2022/09/30 00:25:45;;;;;;;5.18;1.27;;;;;;;8.02;57.74;100683.91;5013772;28;20033;-63
2022/09/30 00:28:10;;;;;;;1.45;0.90;;;;;;;8.01;57.46;100686.56;5011004;28;20100;-65
2022/09/30 00:30:36;;;;;;;2.83;1.40;;;;;;;8.01;57.72;100686.56;5010241;28;20033;-65
2022/09/30 00:33:01;;;;;;;1.80;1.23;;;;;;;8.06;57.70;100685.50;5008516;28;20458;-65
2022/09/30 00:35:27;;;;;;;2.22;1.60;;;;;;;8.16;57.32;100683.47;5012736;28;20570;-65
2022/09/30 00:37:54;;;;;;;2.00;1.42;;;;;;;8.18;57.30;100694.66;5007917;28;20055;-69
2022/09/30 00:40:20;;;;;;;3.20;1.75;;;;;;;8.18;57.31;100688.63;5011509;28;20482;-66
2022/09/30 00:42:45;;;;;;;2.22;1.80;;;;;;;8.14;57.23;100688.72;5007594;28;20041;-74
2022/09/30 00:45:12;;;;;;;3.10;2.45;;;;;;;8.11;57.18;100682.75;5009937;28;20807;-69
2022/09/30 00:48:07;;;;;;;2.58;1.42;;;;;;;8.15;57.04;100686.97;5016516;28;20112;-67
2022/09/30 00:50:37;;;;;;;2.15;1.17;;;;;;;8.16;57.31;100680.88;5011103;28;20045;-68
2022/09/30 00:53:13;;;;;;;2.50;1.60;;;;;;;8.12;57.02;100676.66;5013360;28;20194;-69
2022/09/30 00:55:45;;;;;;;2.38;1.58;;;;;;;8.18;57.12;100683.41;5009134;28;20037;-68
2022/09/30 00:58:16;;;;;;;2.90;1.55;;;;;;;8.20;57.12;100684.22;5009053;28;20041;-68
2022/09/30 01:00:42;;;;;;;2.85;1.77;;;;;;;8.14;56.94;100680.91;5014505;28;20026;-68
2022/09/30 01:03:08;;;;;;;1.95;1.20;;;;;;;8.16;57.04;100683.47;5014703;28;20791;-68
2022/09/30 01:05:34;;;;;;;2.95;1.90;;;;;;;8.12;57.49;100679.28;5010823;28;20055;-68
2022/09/30 01:08:02;;;;;;;3.30;2.08;;;;;;;8.11;57.62;100683.63;5008325;28;20513;-68
2022/09/30 01:10:28;;;;;;;4.68;1.67;;;;;;;8.12;57.35;100685.31;5015926;28;20072;-68
2022/09/30 01:12:55;;;;;;;2.88;1.38;;;;;;;8.18;57.38;100691.22;5006664;28;20069;-68
2022/09/30 01:15:27;;;;;;;3.85;2.00;;;;;;;8.17;57.14;100687.78;5010821;28;20033;-68
2022/09/30 01:18:10;;;;;;;2.90;1.42;;;;;;;8.17;57.17;100687.78;5007052;28;20144;-69
2022/09/30 01:20:58;;;;;;;;;;;;;;;8.24;57.41;100689.25;5012248;28;20087;-72
2022/09/30 01:23:55;;;;;;;2.28;1.25;;;;;;;8.25;57.04;100690.09;5008750;28;19927;-71
2022/09/30 01:26:39;;;;;;;1.80;1.17;;;;;;;8.30;57.06;100701.25;5009133;28;20041;-73
2022/09/30 01:29:13;;;;;;;2.60;1.80;;;;;;;8.25;57.03;100692.72;5006016;28;20045;-69
2022/09/30 01:31:42;;;;;;;6.47;1.65;;;;;;;8.13;57.42;100689.63;5009308;28;20030;-69
2022/09/30 01:34:36;;;;;;;1.58;1.17;;;;;;;8.16;57.22;100693.91;4993454;28;20077;-69
2022/09/30 01:37:07;;;;;;;2.72;1.17;;;;;;;8.13;57.62;100692.22;4994451;28;20104;-68
2022/09/30 01:39:54;;;;;;;2.83;1.45;;;;;;;8.20;57.64;100692.03;5010160;28;20040;-68
2022/09/30 01:42:41;;;;;;;5.82;2.10;;;;;;;8.22;57.29;100695.44;5009325;28;20048;-67
2022/09/30 01:45:13;;;;;;;2.03;1.40;;;;;;;8.26;57.18;100687.47;5006158;28;20589;-66
2022/09/30 01:47:54;;;;;;;2.42;0.95;;;;;;;8.29;57.41;100686.50;5009786;28;20531;-67
2022/09/30 01:50:35;;;;;;;2.28;1.20;;;;;;;8.31;57.43;100695.13;5009699;28;20128;-68
2022/09/30 01:53:12;;;;;;;1.70;0.90;;;;;;;8.30;57.19;100688.22;5012072;28;20091;-67
2022/09/30 01:56:03;;;;;;;6.30;1.40;;;;;;;8.28;57.55;100684.81;5011157;28;20026;-67
2022/09/30 01:58:38;;;;;;;2.47;1.05;;;;;;;8.26;57.42;100681.41;5005812;28;20491;-66
2022/09/30 02:01:10;;;;;;;1.83;0.95;;;;;;;8.31;57.47;100679.50;5008077;28;20037;-66
2022/09/30 02:03:41;;;;;;;1.40;0.60;;;;;;;8.33;57.17;100672.47;5008190;28;20037;-66
2022/09/30 02:06:11;;;;;;;2.25;1.35;;;;;;;8.29;57.07;100682.16;5005681;28;20207;-67
2022/09/30 02:08:45;;;;;;;3.72;0.90;;;;;;;8.39;57.55;100687.91;4997276;28;20063;-69
2022/09/30 02:11:24;;;;;;;1.98;1.08;;;;;;;8.45;57.26;100682.50;5008199;28;20045;-73
2022/09/30 02:13:52;;;;;;;4.13;1.02;;;;;;;8.38;57.25;100691.41;5011975;28;20044;-74
2022/09/30 02:16:32;;;;;;;4.47;0.90;;;;;;;8.35;57.09;100688.91;5031152;28;20684;-69
2022/09/30 02:19:07;;;;;;;1.38;0.60;;;;;;;8.43;57.45;100689.50;5011358;28;20069;-72
2022/09/30 02:21:37;;;;;;;4.90;1.17;;;;;;;8.46;57.29;100702.41;5013318;28;20084;-70
2022/09/30 02:24:09;;;;;;;2.95;0.77;;;;;;;8.45;57.35;100692.91;5005291;28;20151;-72
2022/09/30 02:26:41;;;;;;;1.85;0.50;;;;;;;8.43;57.36;100696.47;5031818;28;20029;-71
2022/09/30 02:29:15;;;;;;;1.60;0.80;;;;;;;8.49;57.10;100693.66;4993936;28;20037;-69
2022/09/30 02:31:45;;;;;;;3.83;0.98;;;;;;;8.46;56.96;100699.81;5009945;28;20112;-69
2022/09/30 02:34:17;;;;;;;1.88;0.70;;;;;;;8.47;57.15;100706.75;5008514;28;20905;-71
2022/09/30 02:37:04;;;;;;;1.67;0.60;;;;;;;8.54;57.16;100707.38;5028457;28;20033;-73
2022/09/30 02:39:52;;;;;;;1.33;0.50;;;;;;;8.53;57.23;100706.50;5008901;28;20021;-72
2022/09/30 02:42:27;;;;;;;1.33;0.68;;;;;;;8.52;57.27;100710.03;5013712;28;20052;-72
2022/09/30 02:44:57;;;;;;;3.35;0.95;;;;;;;8.49;57.20;100709.28;5010074;28;20069;-71
2022/09/30 02:47:53;;;;;;;4.07;0.95;;;;;;;8.34;57.29;100714.09;4991291;28;20052;-71
2022/09/30 02:50:37;;;;;;;2.15;1.23;;;;;;;8.34;57.23;100716.72;5009616;28;20033;-71
2022/09/30 02:53:20;;;;;;;3.60;1.25;;;;;;;8.43;57.11;100718.16;5007306;28;20111;-71
2022/09/30 02:56:14;;;;;;;2.60;0.88;;;;;;;8.36;57.13;100719.28;5009081;28;20120;-71
2022/09/30 02:58:42;;;;;;;1.50;0.90;;;;;;;8.41;56.98;100722.56;5009229;28;20486;-70
2022/09/30 03:01:14;;;;;;;2.30;0.70;;;;;;;8.33;56.90;100719.34;5005851;28;20021;-70
2022/09/30 03:03:50;;;;;;;;;;;;;;;8.01;57.80;100723.03;5014487;28;20045;-70
2022/09/30 03:06:16;;;;;;;1.42;0.90;;;;;;;8.17;57.31;100713.81;5007963;28;19917;-70
2022/09/30 03:08:42;;;;;;;2.08;0.90;;;;;;;8.16;57.56;100717.31;5008907;28;20045;-70
2022/09/30 03:11:14;;;;;;;1.33;0.63;;;;;;;8.09;57.66;100711.47;5016881;28;20479;-70
2022/09/30 03:13:45;;;;;;;;;;;;;;;7.96;57.79;100723.16;5015561;28;20128;-71
2022/09/30 03:16:39;;;;;;;2.40;1.00;;;;;;;7.98;57.81;100712.69;5015243;28;19917;-71
2022/09/30 03:19:19;;;;;;;1.83;0.75;;;;;;;8.05;57.66;100717.66;5007942;28;20056;-71
2022/09/30 03:22:05;;;;;;;2.55;0.93;;;;;;;7.82;57.60;100725.31;5013366;28;20025;-67
2022/09/30 03:24:58;;;;;;;3.30;0.82;;;;;;;7.98;57.73;100723.97;5009836;28;21461;-67
2022/09/30 03:27:31;;;;;;;2.92;0.80;;;;;;;7.99;57.58;100730.88;5011558;28;20057;-67
2022/09/30 03:30:05;;;;;;;1.83;0.93;;;;;;;8.03;57.62;100735.06;5009318;28;20060;-67
2022/09/30 03:32:58;;;;;;;1.80;0.73;;;;;;;8.00;57.78;100734.31;5012978;28;20045;-68
2022/09/30 03:35:47;;;;;;;0.70;0.43;;;;;;;8.08;57.43;100729.72;5009902;28;20044;-69
2022/09/30 03:38:28;;;;;;;1.63;0.88;;;;;;;8.01;57.23;100739.47;5010250;28;20054;-67
2022/09/30 03:41:02;;;;;;;3.80;0.85;;;;;;;8.05;57.13;100743.69;5008824;28;20056;-67
2022/09/30 03:43:34;;;;;;;3.17;1.00;;;;;;;8.03;57.36;100752.47;4999935;28;20125;-66
2022/09/30 03:46:08;;;;;;;2.55;0.90;;;;;;;7.98;57.40;100750.00;5008815;28;20044;-66
2022/09/30 03:48:36;;;;;;;3.17;0.63;;;;;;;7.80;57.55;100755.75;5012561;28;20057;-70
2022/09/30 03:51:04;;;;;;;2.47;0.73;;;;;;;7.66;58.07;100748.34;5000301;28;20461;-70
2022/09/30 03:53:37;;;;;;;2.03;0.70;;;;;;;7.86;57.82;100750.38;4994512;28;20526;-70
2022/09/30 03:56:02;;;;;;;1.48;0.50;;;;;;;7.65;58.38;100747.50;5007511;28;20437;-69
2022/09/30 03:58:28;;;;;;;1.08;0.50;;;;;;;7.92;57.45;100745.81;5013918;28;20042;-69
2022/09/30 04:00:55;;;;;;;3.83;0.82;;;;;;;7.99;57.06;100743.03;5010267;28;20688;-71
2022/09/30 04:03:22;;;;;;;1.98;0.82;;;;;;;7.96;57.15;100741.38;5009796;28;20442;-69
2022/09/30 04:05:48;;;;;;;4.63;0.50;;;;;;;7.97;57.02;100748.28;5012029;28;20036;-70
2022/09/30 04:08:14;;;;;;;4.43;1.10;;;;;;;7.98;57.21;100755.19;5010452;28;20457;-69
2022/09/30 04:10:43;;;;;;;5.28;1.15;;;;;;;8.04;57.08;100760.19;5012222;28;20123;-69
2022/09/30 04:13:09;;;;;;;1.77;0.85;;;;;;;8.05;57.10;100767.13;5014537;28;20038;-70
2022/09/30 04:15:35;;;;;;;1.20;0.63;;;;;;;7.93;56.93;100770.94;5011382;28;20033;-69
2022/09/30 04:18:02;;;;;;;4.53;1.17;;;;;;;7.87;57.16;100770.25;5005687;28;20446;-70
2022/09/30 04:20:29;;;;;;;3.00;1.00;;;;;;;7.52;58.14;100772.16;5011864;28;20075;-70
2022/09/30 04:22:59;;;;;;;2.90;0.63;;;;;;;7.59;57.63;100773.69;4992489;28;20618;-69
2022/09/30 04:25:26;;;;;;;2.80;1.02;;;;;;;7.16;58.71;100774.88;5009538;28;20124;-62
2022/09/30 04:27:53;;;;;;;4.15;0.95;;;;;;;7.41;58.23;100774.19;5010089;28;20084;-65
2022/09/30 04:30:20;;;;;;;6.18;1.02;;;;;;;7.56;57.66;100779.00;4998880;28;20081;-67
2022/09/30 04:32:45;;;;;;;1.80;1.20;;;;;;;7.43;57.48;100777.63;5019152;28;20184;-69
2022/09/30 04:35:12;;;;;;;3.05;1.20;;;;;;;7.46;57.50;100777.50;5008407;28;20180;-69
2022/09/30 04:37:45;;;;;;;2.72;1.67;;;;;;;7.55;57.25;100787.69;5031285;28;20052;-69
2022/09/30 04:40:13;;;;;;;2.35;1.20;;;;;;;7.61;57.16;100786.66;5007930;28;20092;-68
2022/09/30 04:42:41;;;;;;;4.82;1.58;;;;;;;7.56;57.30;100788.53;5013694;28;20045;-68
2022/09/30 04:45:12;;;;;;;2.65;1.20;;;;;;;7.23;57.62;100791.16;5007073;28;20108;-68
2022/09/30 04:47:43;;;;;;;3.65;1.00;;;;;;;7.35;57.30;100795.16;5009411;28;20088;-68
2022/09/30 04:50:09;;;;;;;4.22;1.30;;;;;;;7.22;57.58;100792.91;5010384;28;20030;-68
2022/09/30 04:52:34;;;;;;;2.13;1.33;;;;;;;7.31;57.15;100794.38;5007901;28;20041;-69
2022/09/30 04:55:00;;;;;;;2.22;1.20;;;;;;;7.29;56.94;100796.22;5009329;28;20060;-70
2022/09/30 04:57:26;;;;;;;2.58;1.27;;;;;;;7.19;56.56;100799.94;5005674;28;20045;-69
2022/09/30 04:59:52;;;;;;;3.83;0.77;;;;;;;7.09;56.71;100804.53;5015288;28;20075;-69
2022/09/30 05:02:18;;;;;;;2.25;1.13;;;;;;;7.07;57.08;100798.53;5013657;28;20050;-68
2022/09/30 05:04:44;;;;;;;1.70;1.42;;;;;;;6.97;57.03;100797.06;5012219;28;20100;-68
2022/09/30 05:07:10;;;;;;;2.10;1.48;;;;;;;6.90;57.09;100794.59;5007806;28;20045;-69
2022/09/30 05:09:35;;;;;;;2.40;1.40;;;;;;;6.86;57.13;100794.72;5007826;28;20065;-68
2022/09/30 05:12:02;;;;;;;2.97;2.17;;;;;;;6.85;57.14;100800.81;5007657;28;20053;-68
2022/09/30 05:14:28;;;;;;;3.80;1.40;;;;;;;6.73;57.27;100799.41;5008328;28;20680;-69
2022/09/30 05:16:54;;;;;;;2.47;1.90;;;;;;;6.64;57.50;100802.19;5009419;28;20452;-68
2022/09/30 05:19:20;;;;;;;2.65;1.63;;;;;;;6.60;57.67;100798.84;5013957;28;20028;-69
2022/09/30 05:21:46;;;;;;;2.25;1.20;;;;;;;6.62;57.58;100793.59;5010358;28;20025;-68
2022/09/30 05:24:12;;;;;;;3.53;1.73;;;;;;;6.61;57.30;100807.47;5006100;28;20084;-68
2022/09/30 05:26:39;;;;;;;4.47;2.20;;;;;;;6.59;57.49;100809.25;5010473;28;20038;-68
2022/09/30 05:29:08;;;;;;;3.53;2.63;;;;;;;6.55;57.83;100807.63;5008205;28;20060;-68
2022/09/30 05:31:34;;;;;;;4.35;2.40;;;;;;;6.45;58.35;100807.84;5009280;28;20580;-69
2022/09/30 05:34:00;;;;;;;4.03;2.50;;;;;;;6.62;58.12;100804.84;5009776;28;20038;-69
2022/09/30 05:36:26;;;;;;;4.88;2.78;;;;;;;6.71;57.95;100808.97;5007882;28;20596;-69
2022/09/30 05:38:53;;;;;;;3.70;2.97;;;;;;;6.75;58.05;100802.78;5010325;28;20123;-68
2022/09/30 05:41:23;;;;;;;5.65;3.83;;;;;;;6.79;58.14;100812.22;5009226;28;20037;-68
2022/09/30 05:43:48;;;;;;;5.78;4.93;;;;;;;6.94;58.15;100816.19;5008644;28;20125;-69
2022/09/30 05:46:16;;;;;;;11.05;4.07;;;;;;;6.96;58.14;100818.75;5006099;28;20116;-68
2022/09/30 05:48:42;;;;;;;6.07;4.35;;;;;;;7.13;57.93;100811.34;5013150;28;20054;-68
2022/09/30 05:51:08;;;;;;;7.80;4.15;;;;;;;7.25;58.23;100805.81;5005266;28;20030;-70
2022/09/30 05:53:40;;;;;;;6.18;3.92;;;;;;;7.25;57.48;100810.19;5008761;28;20049;-70
2022/09/30 05:56:08;;;;;;;9.60;4.75;;;;;;;6.84;58.46;100809.50;5006466;28;20037;-68
2022/09/30 05:58:34;;;;;;;6.63;4.10;;;;;;;7.29;57.66;100811.81;5012869;28;20045;-70
2022/09/30 06:01:10;;;;;;;7.40;4.65;;;;;;;7.30;57.48;100806.53;5006114;28;20068;-69
2022/09/30 06:03:37;;;;;;;5.72;3.95;;;;;;;7.30;57.22;100803.94;5006412;28;20118;-69
2022/09/30 06:06:04;;;;;;;5.70;4.55;;;;;;;7.26;57.31;100807.50;5008685;28;20111;-70
2022/09/30 06:08:30;;;;;;;6.13;4.60;;;;;;;7.28;57.46;100808.31;5007179;28;20574;-69
2022/09/30 06:10:58;;;;;;;6.40;4.97;;;;;;;7.30;57.46;100823.91;5006277;28;20026;-69
2022/09/30 06:13:24;;;;;;;9.35;5.43;;;;;;;7.21;57.78;100827.59;5009225;28;20126;-70
2022/09/30 06:16:09;;;;;;;6.05;4.82;;;;;;;7.31;57.61;100826.47;4992149;28;20049;-70
2022/09/30 06:18:35;;;;;;;10.57;5.78;;;;;;;7.40;57.62;100833.16;5008201;28;20049;-70
2022/09/30 06:21:03;;;;;;;9.43;5.78;;;;;;;7.53;57.75;100836.25;5012533;28;20251;-69
2022/09/30 06:23:31;;;;;;;8.85;4.88;;;;;;;7.94;57.20;100836.88;5009669;28;20041;-69
2022/09/30 06:25:56;;;;;;;5.53;4.38;;;;;;;8.22;56.29;100841.25;5000677;28;20130;-69
2022/09/30 06:28:23;;;;;;;10.10;4.90;;;;;;;8.43;54.76;100840.56;5006078;28;20711;-70
2022/09/30 06:30:49;;;;;;;10.35;5.10;;;;;;;8.12;55.52;100841.53;5005927;28;20068;-69
2022/09/30 06:33:15;;;;;;;5.88;5.22;;;;;;;8.61;55.55;100843.50;5003603;28;20040;-70
2022/09/30 06:35:41;;;;;;;4.60;4.20;;;;;;;8.77;54.46;100847.34;5008780;28;20208;-69
2022/09/30 06:38:10;;;;;;;4.93;4.13;;;;;;;8.42;54.41;100851.88;5003786;28;20041;-69
2022/09/30 06:40:36;;;;;;;4.75;4.15;;;;;;;7.68;55.58;100854.06;5009921;28;20037;-69
2022/09/30 06:43:02;;;;;;;7.53;4.07;;;;;;;7.96;56.13;100861.09;5025760;28;20068;-70
2022/09/30 06:45:28;;;;;;;5.57;5.07;;;;;;;8.18;55.88;100866.50;5010229;28;20038;-70
2022/09/30 06:48:03;;;;;;;7.53;4.28;;;;;;;8.95;54.80;100870.19;5008406;28;20160;-70
2022/09/30 06:50:29;;;;;;;7.50;4.75;;;;;;;9.75;54.20;100861.34;5023465;28;20029;-69
2022/09/30 06:52:59;;;;;;;4.50;4.10;;;;;;;11.55;50.25;100857.56;4996410;28;20128;-70
2022/09/30 06:55:26;;;;;;;4.60;3.78;;;;;;;11.44;49.30;100871.16;5006638;28;20034;-67
2022/09/30 06:57:55;;;;;;;5.15;3.25;;;;;;;11.18;48.40;100876.66;5011087;28;20076;-68
2022/09/30 07:00:22;;;;;;;3.50;2.75;;;;;;;13.07;46.98;100868.78;5015087;28;20516;-68
2022/09/30 07:02:50;;;;;;;3.15;2.15;;;;;;;15.61;43.32;100859.09;5015236;28;20445;-69
2022/09/30 07:05:16;;;;;;;3.28;2.70;;;;;;;17.43;36.07;100867.50;5013285;28;20034;-68
2022/09/30 07:07:42;;;;;;;3.92;2.10;;;;;;;18.43;31.72;100856.00;5017094;28;20042;-69
2022/09/30 07:10:08;;;;;;;3.90;1.63;;;;;;;19.63;32.20;100859.31;5012260;28;20030;-69
2022/09/30 07:12:34;;;;;;;2.38;1.73;;;;;;;20.57;30.57;100849.13;5005566;28;20399;-69
2022/09/30 07:14:59;;;;;;;1.60;0.75;;;;;;;21.42;28.97;100862.28;5014323;28;20409;-68
2022/09/30 07:17:28;;;;;;;1.10;0.95;;;;;;;21.34;29.55;100860.28;5012497;28;20491;-69
2022/09/30 07:19:54;;;;;;;4.07;1.30;;;;;;;21.12;26.50;100852.47;5016397;28;20045;-68
2022/09/30 07:22:29;;;;;;;1.50;1.20;;;;;;;19.32;28.54;100860.84;5034741;28;20081;-68
2022/09/30 07:24:59;;;;;;;1.52;0.73;;;;;;;17.63;32.53;100856.41;5015584;28;20642;-69
2022/09/30 07:27:26;;;;;;;2.85;1.73;;;;;;;16.18;34.97;100859.06;5007226;28;20489;-68
2022/09/30 07:29:52;;;;;;;7.75;5.35;;;;;;;15.10;35.44;100863.00;5016238;28;20037;-67
2022/09/30 07:32:18;;;;;;;2.65;2.05;;;;;;;15.56;37.03;100860.22;5011901;28;20053;-68
2022/09/30 07:34:44;;;;;;;1.98;1.55;;;;;;;17.06;36.86;100864.72;5016526;28;20037;-67
2022/09/30 07:37:13;;;;;;;1.73;1.40;;;;;;;18.74;33.09;100852.84;5010488;28;20095;-68
2022/09/30 07:39:40;;;;;;;2.67;1.52;;;;;;;18.87;31.30;100851.84;5013308;28;20033;-67
2022/09/30 07:42:05;;;;;;;5.40;1.60;;;;;;;16.99;32.56;100858.19;5007428;28;20096;-67
2022/09/30 07:44:31;;;;;;;3.65;1.52;;;;;;;16.66;34.47;100848.03;5012881;28;20030;-67
2022/09/30 07:46:57;;;;;;;2.20;1.67;;;;;;;18.46;34.54;100857.56;5008948;28;20383;-67
2022/09/30 07:49:24;;;;;;;1.80;1.35;;;;;;;19.60;30.82;100855.09;5015865;28;20041;-67
2022/09/30 07:51:51;;;;;;;2.13;0.88;;;;;;;21.46;27.79;100852.22;5012015;28;20069;-67
2022/09/30 07:54:23;;;;;;;2.22;1.05;;;;;;;22.12;26.26;100844.66;5016206;28;20037;-68
2022/09/30 07:56:50;;;;;;;1.20;0.80;;;;;;;23.46;27.77;100852.81;5017423;28;20071;-67
2022/09/30 07:59:16;;;;;;;5.80;1.05;;;;;;;23.90;25.09;100853.91;5011007;28;20032;-68
2022/09/30 08:01:43;;;;;;;1.55;0.95;;;;;;;23.81;24.30;100847.59;5007903;28;20038;-67
2022/09/30 08:04:09;;;;;;;1.60;1.13;;;;;;;23.21;24.44;100855.13;5030365;28;20112;-67
2022/09/30 08:06:41;;;;;;;2.50;1.23;;;;;;;23.08;26.86;100862.59;5012891;28;20090;-67
2022/09/30 08:09:07;;;;;;;;;;;;;;;22.80;26.50;100855.31;5008146;28;20176;-67
2022/09/30 08:11:34;;;;;;;3.90;0.60;;;;;;;21.98;28.15;100863.66;5010564;28;20485;-67
2022/09/30 08:14:02;;;;;;;1.90;0.68;;;;;;;22.31;26.64;100859.78;5006433;28;20144;-67
2022/09/30 08:16:27;;;;;;;6.25;1.25;;;;;;;22.77;26.19;100863.63;5005914;28;20132;-68
2022/09/30 08:18:57;;;;;;;1.67;0.50;;;;;;;23.31;25.91;100861.28;5008527;28;20053;-68
2022/09/30 08:21:23;;;;;;;2.33;0.60;;;;;;;23.31;25.35;100863.94;5028938;28;20036;-68
2022/09/30 08:23:48;;;;;;;1.85;1.10;;;;;;;22.06;26.48;100866.44;5009345;28;20037;-69
2022/09/30 08:26:15;;;;;;;3.00;0.77;;;;;;;22.13;26.96;100856.97;4985753;28;20037;-68
2022/09/30 08:28:41;;;;;;;1.48;0.75;;;;;;;22.51;26.50;100860.63;5006606;28;20073;-69
2022/09/30 08:31:09;;;;;;;2.38;1.35;;;;;;;22.06;28.54;100863.78;4999245;28;20030;-68
2022/09/30 08:33:34;;;;;;;2.58;1.02;;;;;;;21.52;28.23;100867.69;5010430;28;20064;-68
2022/09/30 08:36:05;;;;;;;4.07;1.35;;;;;;;21.64;29.95;100868.44;5007405;28;20326;-68
2022/09/30 08:38:30;;;;;;;1.15;0.70;;;;;;;20.91;29.14;100863.13;5009097;28;20525;-68
2022/09/30 08:41:02;;;;;;;3.38;1.00;;;;;;;19.74;32.58;100866.44;5007725;28;20041;-68
2022/09/30 08:43:40;;;;;;;4.60;0.93;;;;;;;19.71;32.69;100873.66;5009790;28;20069;-70
2022/09/30 08:46:16;;;;;;;1.92;1.02;;;;;;;20.06;31.27;100867.38;5007903;28;20030;-67
2022/09/30 08:48:49;;;;;;;2.22;1.00;;;;;;;20.04;32.23;100873.75;5014138;28;20130;-69
2022/09/30 08:51:40;;;;;;;1.38;0.80;;;;;;;17.80;35.85;100875.50;5005431;28;20112;-69
2022/09/30 08:54:12;;;;;;;2.47;1.13;;;;;;;17.57;34.72;100879.78;5006670;28;20045;-67
2022/09/30 08:56:38;;;;;;;4.63;1.65;;;;;;;17.41;35.85;100872.03;5008445;28;20196;-67
2022/09/30 08:59:28;;;;;;;4.88;1.13;;;;;;;16.20;37.44;100870.38;5013394;28;20506;-68
2022/09/30 09:02:03;;;;;;;3.08;0.70;;;;;;;15.99;37.04;100873.38;5007480;28;20044;-67
2022/09/30 09:04:29;;;;;;;5.97;0.90;;;;;;;16.94;36.93;100866.41;5013862;28;20414;-67
2022/09/30 09:07:03;;;;;;;3.08;1.13;;;;;;;16.65;36.77;100864.84;5006364;28;20148;-68
2022/09/30 09:10:02;;;;;;;2.33;1.13;;;;;;;17.39;35.69;100869.50;5012845;28;20038;-69
2022/09/30 09:13:05;;;;;;;0.95;0.55;;;;;;;17.16;34.79;100876.38;5011094;28;20045;-68
2022/09/30 09:15:55;;;;;;;1.52;0.65;;;;;;;17.38;35.09;100869.59;5009290;28;20044;-68
2022/09/30 09:18:23;;;;;;;2.67;0.50;;;;;;;16.73;36.71;100873.06;5004932;28;20053;-68
2022/09/30 09:20:58;;;;;;;3.38;0.88;;;;;;;16.29;35.13;100877.69;5012820;28;20418;-67
2022/09/30 09:23:25;;;;;;;2.38;0.60;;;;;;;17.01;35.67;100878.25;5011215;28;20135;-67
2022/09/30 09:25:54;;;;;;;1.98;0.35;;;;;;;17.04;35.06;100871.91;5008667;28;20203;-67
2022/09/30 09:28:44;;;;;;;2.63;0.70;;;;;;;17.39;34.58;100876.59;5008511;28;20520;-68
2022/09/30 09:31:17;;;;;;;1.60;0.50;;;;;;;17.99;34.02;100881.19;5006971;28;20029;-68
2022/09/30 09:33:44;;;;;;;2.35;0.40;;;;;;;18.58;32.52;100879.63;5009555;28;20613;-68
2022/09/30 09:36:27;;;;;;;1.48;0.60;;;;;;;17.39;33.52;100876.59;5006579;28;20045;-68
2022/09/30 09:39:05;;;;;;;2.00;0.45;;;;;;;17.54;34.66;100890.56;5012474;28;20827;-68
2022/09/30 09:41:47;;;;;;;1.38;0.47;;;;;;;18.25;33.71;100881.13;4997570;28;20037;-66
2022/09/30 09:44:41;;;;;;;1.45;0.68;;;;;;;17.97;32.04;100883.09;5006018;28;20085;-67
2022/09/30 09:47:15;;;;;;;2.95;0.63;;;;;;;17.05;34.73;100884.19;5006080;28;20439;-67
2022/09/30 09:49:49;;;;;;;3.00;0.73;;;;;;;17.19;35.50;100876.16;5027686;28;20397;-66
2022/09/30 09:52:39;;;;;;;1.10;0.63;;;;;;;17.61;35.63;100873.34;5010222;28;20041;-66
2022/09/30 09:55:05;;;;;;;3.88;0.68;;;;;;;17.74;33.79;100876.81;5010960;28;20033;-66
2022/09/30 09:57:31;;;;;;;2.53;0.80;;;;;;;17.71;35.15;100869.06;5012873;28;20447;-66
2022/09/30 10:03:18;;;;;;;3.30;0.57;;;;;;;17.53;33.72;100873.84;5030144;28;20069;-67
2022/09/30 10:05:46;;;;;;;2.38;0.85;;;;;;;17.97;34.40;100883.09;5008316;28;20112;-66
2022/09/30 10:08:20;;;;;;;0.93;0.38;;;;;;;18.25;33.63;100875.84;5007423;28;20144;-67
2022/09/30 10:10:55;;;;;;;1.33;0.75;;;;;;;18.39;33.53;100873.06;5008761;28;20107;-67
2022/09/30 10:13:23;;;;;;;1.83;0.60;;;;;;;18.35;32.51;100865.47;5007719;28;20034;-67
2022/09/30 10:15:53;;;;;;;1.15;0.50;;;;;;;17.70;34.21;100869.22;5009698;28;20375;-67
2022/09/30 10:18:26;;;;;;;3.97;1.05;;;;;;;17.78;33.76;100873.00;5007333;28;20037;-67
2022/09/30 10:20:54;;;;;;;2.33;0.90;;;;;;;18.33;33.54;100867.38;5008937;28;20331;-67
2022/09/30 10:23:28;;;;;;;1.00;0.40;;;;;;;18.43;33.83;100874.53;5008022;28;20618;-67
2022/09/30 10:25:54;;;;;;;4.57;0.80;;;;;;;18.03;34.05;100872.09;5008130;28;20202;-67
2022/09/30 10:28:23;;;;;;;1.40;0.50;;;;;;;18.27;32.20;100868.66;5006796;28;20080;-68
2022/09/30 10:30:54;;;;;;;1.13;0.63;;;;;;;17.79;33.95;100879.13;5013223;28;20052;-67
2022/09/30 10:33:22;;;;;;;0.60;0.30;;;;;;;17.72;35.17;100877.88;5006742;28;20052;-66
2022/09/30 10:36:01;;;;;;;1.05;0.45;;;;;;;18.11;34.19;100874.16;5010824;28;20041;-67
2022/09/30 10:38:28;;;;;;;1.50;0.45;;;;;;;18.32;34.20;100877.13;5008224;28;20050;-66
2022/09/30 10:40:55;;;;;;;1.25;0.38;;;;;;;18.42;33.53;100882.56;5010236;28;20082;-67
2022/09/30 10:43:28;;;;;;;1.08;0.28;;;;;;;18.57;32.67;100885.91;5011644;28;20578;-67
2022/09/30 10:45:54;;;;;;;0.77;0.30;;;;;;;19.11;33.73;100880.09;5009746;28;20413;-66
2022/09/30 10:48:23;;;;;;;1.02;0.20;;;;;;;19.34;32.13;100880.13;5006018;28;20037;-67
2022/09/30 10:50:54;;;;;;;0.80;0.40;;;;;;;18.69;32.80;100875.22;5009853;28;20038;-67
2022/09/30 10:53:28;;;;;;;1.33;0.17;;;;;;;18.80;31.81;100871.78;5008844;28;20044;-67
2022/09/30 10:55:55;;;;;;;0.50;0.10;;;;;;;17.93;33.34;100876.34;5016002;28;20454;-67
2022/09/30 10:58:37;;;;;;;1.00;0.15;;;;;;;17.57;32.98;100870.06;5008136;28;20332;-67
2022/09/30 11:01:24;;;;;;;0.82;0.10;;;;;;;16.13;33.83;100871.69;5005368;28;20506;-66
2022/09/30 11:03:56;;;;;;;0.43;0.30;;;;;;;16.46;35.41;100868.66;5029231;28;20038;-67
2022/09/30 11:06:23;;;;;;;;;;;;;;;17.46;33.96;100880.50;5007009;28;20112;-66
2022/09/30 11:09:05;;;;;;;0.60;0.22;;;;;;;17.17;33.13;100872.75;5009291;28;19925;-67
2022/09/30 11:11:38;;;;;;;0.80;0.10;;;;;;;18.53;31.96;100864.09;5014067;28;20396;-67
2022/09/30 11:14:10;;;;;;;1.63;0.30;;;;;;;18.95;32.31;100866.34;5009740;28;20066;-67
2022/09/30 11:16:45;;;;;;;0.50;0.20;;;;;;;18.51;31.56;100862.53;5008000;28;20037;-67
2022/09/30 11:19:27;;;;;;;0.30;0.10;;;;;;;18.63;31.06;100858.94;5002515;28;20049;-67
2022/09/30 11:21:59;;;;;;;2.40;0.40;;;;;;;17.01;33.86;100866.84;5013281;28;20033;-66
2022/09/30 11:24:44;;;;;;;;;;;;;;;16.44;35.12;100878.47;5008671;28;20103;-67
2022/09/30 11:27:22;;;;;;;1.30;0.30;;;;;;;17.48;33.96;100870.69;5005046;28;19924;-67
2022/09/30 11:30:12;;;;;;;1.02;0.17;;;;;;;17.34;32.63;100868.16;5007500;28;20029;-67
2022/09/30 11:33:14;;;;;;;0.63;0.20;;;;;;;17.57;32.58;100869.22;5007371;28;20046;-67
2022/09/30 11:36:18;;;;;;;2.53;0.20;;;;;;;17.51;32.63;100862.53;5006508;28;20060;-67
2022/09/30 11:38:57;;;;;;;1.33;0.30;;;;;;;17.05;33.29;100863.06;5008368;28;20033;-66
2022/09/30 11:41:31;;;;;;;0.93;0.30;;;;;;;16.32;34.23;100859.00;5007038;28;20061;-66
2022/09/30 11:44:41;;;;;;;3.63;0.50;;;;;;;15.99;35.81;100844.41;5006589;28;20034;-67
2022/09/30 11:47:19;;;;;;;2.08;0.32;;;;;;;16.72;34.56;100840.56;5003552;28;20049;-67
2022/09/30 11:50:20;;;;;;;1.27;0.38;;;;;;;17.01;34.41;100845.72;5012449;28;20040;-67
2022/09/30 11:53:02;;;;;;;0.60;0.20;;;;;;;18.17;33.00;100841.16;4996846;28;20049;-69
2022/09/30 11:55:46;;;;;;;1.05;0.50;;;;;;;18.36;32.98;100838.03;5005955;28;20459;-66
2022/09/30 11:58:22;;;;;;;1.10;0.32;;;;;;;18.44;30.60;100823.28;5009557;28;20057;-65